INFORMACIÓN METAR y TAF
METAR FOR LEMD
ADDS - METARS form results

(2209 UTC 13 August 2022)
Data provider http://aviationweather.gov/metar/data/
 
METAR text: LEMD 132200Z 17004KT 130V210 CAVOK 23/13 Q1015 NOSIG
Conditions at: LEMD (MADRID/BARAJAS , ES) observed 2200 UTC 13 August 2022
Temperature: 23.0°C (73°F)
Dewpoint: 13.0°C (55°F) [RH = 53%]
Pressure (altimeter): 29.97 inches Hg (1015.0 mb)
Winds: from the S (170 degrees) at 5 MPH (4 knots; 2.1 m/s)
Visibility: 6 or more miles (10+ km)
Ceiling: ceiling and visibility are OK
Clouds: unknown
Weather: no significant weather observed at this time

METAR text: LEMD 132130Z 13003KT 090V150 CAVOK 23/13 Q1015 NOSIG
Conditions at: LEMD (MADRID/BARAJAS , ES) observed 2130 UTC 13 August 2022
Temperature: 23.0°C (73°F)
Dewpoint: 13.0°C (55°F) [RH = 53%]
Pressure (altimeter): 29.97 inches Hg (1015.0 mb)
Winds: from the SE (130 degrees) at 3 MPH (3 knots; 1.5 m/s)
Visibility: 6 or more miles (10+ km)
Ceiling: ceiling and visibility are OK
Clouds: unknown
Weather: no significant weather observed at this time

Forecast for: AMD
Text: TAF AMD LEMD 131823Z 1318/1424 VRB05KT CAVOK TX32/1415Z TN16/1405Z
Forecast period: 1800 UTC 13 August 2022 to 0000 UTC 15 August 2022
Forecast type: FROM: standard forecast or significant change
Winds: variable direction winds at 6 MPH (5 knots; 2.6 m/s)
Visibility: 6 or more miles (10+ km)
Ceiling: unknown
Clouds: missing
Weather: no significant weather forecast for this period
Text: PROB40
Forecast period: 1800 to 2000 UTC 13 August 2022
Forecast type: TEMPORARY: The following changes expected for less than half the time period
Winds: from the S (180 degrees) at 12 MPH (10 knots; 5.1 m/s)
Visibility: missing
Ceiling: unknown
Clouds: missing
Weather: no significant weather forecast for this period
Text: TEMPO 1318/1320 18010KT
Forecast period: 1800 to 1900 UTC 13 August 2022
Forecast type: TEMPORARY: The following changes expected for less than half the time period
Winds: variable direction winds at 23 MPH (20 knots; 10.3 m/s)
gusting to 34 MPH (30 knots; 15.4 m/s)
Visibility: 2.49 miles (4.01 km)
Ceiling: at least 12,000 feet AGL
Clouds: scattered clouds at 4000 feet AGL
Weather: TSRA SHRA  (rain associated with thunderstorm(s), rain showers)
Text: PROB30
Forecast period: 1000 to 2000 UTC 14 August 2022
Forecast type: TEMPORARY: The following changes expected for less than half the time period
Winds: from the SW (220 degrees) at 12 MPH (10 knots; 5.1 m/s)
Visibility: missing
Ceiling: unknown
Clouds: missing
Weather: no significant weather forecast for this period

 MAPA DE AEROPUERTO

 INFORMACIÓN DE PISTA